sensor_id;sensor_type;location;lat;lon;timestamp;temperature;humidity
31074;DHT22;17730;53.552;9.940;2023-03-12T00:01:20;1.60;99.90
31074;DHT22;17730;53.552;9.940;2023-03-12T00:03:46;1.60;99.90
31074;DHT22;17730;53.552;9.940;2023-03-12T00:06:12;1.60;99.90
31074;DHT22;17730;53.552;9.940;2023-03-12T00:08:38;1.60;99.90
31074;DHT22;17730;53.552;9.940;2023-03-12T00:11:04;1.70;99.90
31074;DHT22;17730;53.552;9.940;2023-03-12T00:13:33;1.80;99.90
31074;DHT22;17730;53.552;9.940;2023-03-12T00:18:51;1.80;99.90
31074;DHT22;17730;53.552;9.940;2023-03-12T00:21:17;1.90;99.90
31074;DHT22;17730;53.552;9.940;2023-03-12T00:23:43;1.90;99.90
31074;DHT22;17730;53.552;9.940;2023-03-12T00:26:10;1.90;99.90
31074;DHT22;17730;53.552;9.940;2023-03-12T00:28:36;1.90;99.90
31074;DHT22;17730;53.552;9.940;2023-03-12T00:31:02;1.90;99.90
31074;DHT22;17730;53.552;9.940;2023-03-12T00:33:28;1.90;99.90
31074;DHT22;17730;53.552;9.940;2023-03-12T00:35:54;1.90;99.90
31074;DHT22;17730;53.552;9.940;2023-03-12T00:38:20;1.90;99.90
31074;DHT22;17730;53.552;9.940;2023-03-12T00:40:45;1.90;99.90
31074;DHT22;17730;53.552;9.940;2023-03-12T00:43:11;1.90;99.90
31074;DHT22;17730;53.552;9.940;2023-03-12T00:45:37;1.80;99.90
31074;DHT22;17730;53.552;9.940;2023-03-12T00:48:02;1.90;99.90
31074;DHT22;17730;53.552;9.940;2023-03-12T00:50:28;1.90;99.90
31074;DHT22;17730;53.552;9.940;2023-03-12T00:52:53;1.90;99.90
31074;DHT22;17730;53.552;9.940;2023-03-12T00:55:19;1.90;99.90
31074;DHT22;17730;53.552;9.940;2023-03-12T00:57:44;1.90;99.90
31074;DHT22;17730;53.552;9.940;2023-03-12T01:00:11;1.90;99.90
31074;DHT22;17730;53.552;9.940;2023-03-12T01:02:37;1.90;99.90
31074;DHT22;17730;53.552;9.940;2023-03-12T01:05:04;1.90;99.90
31074;DHT22;17730;53.552;9.940;2023-03-12T01:07:31;1.90;99.90
31074;DHT22;17730;53.552;9.940;2023-03-12T01:09:56;1.90;99.90
31074;DHT22;17730;53.552;9.940;2023-03-12T01:12:22;1.90;99.90
31074;DHT22;17730;53.552;9.940;2023-03-12T01:14:47;1.90;99.90
31074;DHT22;17730;53.552;9.940;2023-03-12T01:17:13;1.90;99.90
31074;DHT22;17730;53.552;9.940;2023-03-12T01:19:38;1.90;99.90
31074;DHT22;17730;53.552;9.940;2023-03-12T01:22:04;1.80;99.90
31074;DHT22;17730;53.552;9.940;2023-03-12T01:24:29;1.70;99.90
31074;DHT22;17730;53.552;9.940;2023-03-12T01:26:55;1.70;99.90
31074;DHT22;17730;53.552;9.940;2023-03-12T01:29:21;1.70;99.90
31074;DHT22;17730;53.552;9.940;2023-03-12T01:31:46;1.70;99.90
31074;DHT22;17730;53.552;9.940;2023-03-12T01:34:12;1.70;99.90
31074;DHT22;17730;53.552;9.940;2023-03-12T01:36:37;1.70;99.90
31074;DHT22;17730;53.552;9.940;2023-03-12T01:39:03;1.60;99.90
31074;DHT22;17730;53.552;9.940;2023-03-12T01:41:29;1.60;99.90
31074;DHT22;17730;53.552;9.940;2023-03-12T01:43:56;1.60;99.90
31074;DHT22;17730;53.552;9.940;2023-03-12T01:46:38;1.60;99.90
31074;DHT22;17730;53.552;9.940;2023-03-12T01:49:09;1.60;99.90
31074;DHT22;17730;53.552;9.940;2023-03-12T01:51:40;1.70;99.90
31074;DHT22;17730;53.552;9.940;2023-03-12T01:54:11;1.70;99.90
31074;DHT22;17730;53.552;9.940;2023-03-12T01:56:38;1.70;99.90
31074;DHT22;17730;53.552;9.940;2023-03-12T01:59:11;1.70;99.90
31074;DHT22;17730;53.552;9.940;2023-03-12T02:01:38;1.70;99.90
31074;DHT22;17730;53.552;9.940;2023-03-12T02:04:04;1.70;99.90
31074;DHT22;17730;53.552;9.940;2023-03-12T02:06:33;1.60;99.90
31074;DHT22;17730;53.552;9.940;2023-03-12T02:09:01;1.60;99.90
31074;DHT22;17730;53.552;9.940;2023-03-12T02:11:27;1.60;99.90
31074;DHT22;17730;53.552;9.940;2023-03-12T02:13:55;1.50;99.90
31074;DHT22;17730;53.552;9.940;2023-03-12T02:16:20;1.40;99.90
31074;DHT22;17730;53.552;9.940;2023-03-12T02:18:46;1.40;99.90
31074;DHT22;17730;53.552;9.940;2023-03-12T02:21:15;1.40;99.90
31074;DHT22;17730;53.552;9.940;2023-03-12T02:26:29;1.50;99.90
31074;DHT22;17730;53.552;9.940;2023-03-12T02:28:55;1.60;99.90
31074;DHT22;17730;53.552;9.940;2023-03-12T02:31:22;1.60;99.90
31074;DHT22;17730;53.552;9.940;2023-03-12T02:33:48;1.70;99.90
31074;DHT22;17730;53.552;9.940;2023-03-12T02:36:14;1.70;99.90
31074;DHT22;17730;53.552;9.940;2023-03-12T02:38:43;1.70;99.90
31074;DHT22;17730;53.552;9.940;2023-03-12T02:41:10;1.70;99.90
31074;DHT22;17730;53.552;9.940;2023-03-12T02:43:36;1.70;99.90
31074;DHT22;17730;53.552;9.940;2023-03-12T02:46:02;1.60;99.90
31074;DHT22;17730;53.552;9.940;2023-03-12T02:48:28;1.50;99.90
31074;DHT22;17730;53.552;9.940;2023-03-12T02:50:53;1.50;99.90
31074;DHT22;17730;53.552;9.940;2023-03-12T02:53:19;1.50;99.90
31074;DHT22;17730;53.552;9.940;2023-03-12T02:55:44;1.40;99.90
31074;DHT22;17730;53.552;9.940;2023-03-12T02:58:10;1.30;99.90
31074;DHT22;17730;53.552;9.940;2023-03-12T03:00:35;1.30;99.90
31074;DHT22;17730;53.552;9.940;2023-03-12T03:03:02;1.20;99.90
31074;DHT22;17730;53.552;9.940;2023-03-12T03:05:27;1.10;99.90
31074;DHT22;17730;53.552;9.940;2023-03-12T03:07:53;1.10;99.90
31074;DHT22;17730;53.552;9.940;2023-03-12T03:10:19;1.10;99.90
31074;DHT22;17730;53.552;9.940;2023-03-12T03:12:44;1.00;99.90
31074;DHT22;17730;53.552;9.940;2023-03-12T03:15:10;1.00;99.90
31074;DHT22;17730;53.552;9.940;2023-03-12T03:17:35;1.00;99.90
31074;DHT22;17730;53.552;9.940;2023-03-12T03:20:01;0.90;99.90
31074;DHT22;17730;53.552;9.940;2023-03-12T03:22:28;1.00;99.90
31074;DHT22;17730;53.552;9.940;2023-03-12T03:24:54;1.00;99.90
31074;DHT22;17730;53.552;9.940;2023-03-12T03:27:19;1.00;99.90
31074;DHT22;17730;53.552;9.940;2023-03-12T03:29:45;1.10;99.90
31074;DHT22;17730;53.552;9.940;2023-03-12T03:32:11;1.10;99.90
31074;DHT22;17730;53.552;9.940;2023-03-12T03:34:36;1.10;99.90
31074;DHT22;17730;53.552;9.940;2023-03-12T03:37:03;1.20;99.90
31074;DHT22;17730;53.552;9.940;2023-03-12T03:39:28;1.20;99.90
31074;DHT22;17730;53.552;9.940;2023-03-12T03:41:54;1.20;99.90
31074;DHT22;17730;53.552;9.940;2023-03-12T03:44:19;1.30;99.90
31074;DHT22;17730;53.552;9.940;2023-03-12T03:46:47;1.30;99.90
31074;DHT22;17730;53.552;9.940;2023-03-12T03:49:13;1.30;99.90
31074;DHT22;17730;53.552;9.940;2023-03-12T03:51:39;1.30;99.90
31074;DHT22;17730;53.552;9.940;2023-03-12T03:54:07;1.40;99.90
31074;DHT22;17730;53.552;9.940;2023-03-12T03:56:32;1.50;99.90
31074;DHT22;17730;53.552;9.940;2023-03-12T03:58:58;1.50;99.90
31074;DHT22;17730;53.552;9.940;2023-03-12T04:01:23;1.50;99.90
31074;DHT22;17730;53.552;9.940;2023-03-12T04:03:49;1.50;99.90
31074;DHT22;17730;53.552;9.940;2023-03-12T04:06:14;1.40;99.90
31074;DHT22;17730;53.552;9.940;2023-03-12T04:08:40;1.40;99.90
31074;DHT22;17730;53.552;9.940;2023-03-12T04:11:15;1.40;99.90
31074;DHT22;17730;53.552;9.940;2023-03-12T04:13:41;1.30;99.90
31074;DHT22;17730;53.552;9.940;2023-03-12T04:16:07;1.30;99.90
31074;DHT22;17730;53.552;9.940;2023-03-12T04:18:32;1.30;99.90
31074;DHT22;17730;53.552;9.940;2023-03-12T04:21:00;1.30;99.90
31074;DHT22;17730;53.552;9.940;2023-03-12T04:23:25;1.30;99.90
31074;DHT22;17730;53.552;9.940;2023-03-12T04:25:51;1.30;99.90
31074;DHT22;17730;53.552;9.940;2023-03-12T04:28:16;1.20;99.90
31074;DHT22;17730;53.552;9.940;2023-03-12T04:30:42;1.20;99.90
31074;DHT22;17730;53.552;9.940;2023-03-12T04:33:07;1.20;99.90
31074;DHT22;17730;53.552;9.940;2023-03-12T04:35:33;1.10;99.90
31074;DHT22;17730;53.552;9.940;2023-03-12T04:38:01;1.10;99.90
31074;DHT22;17730;53.552;9.940;2023-03-12T04:40:27;1.10;99.90
31074;DHT22;17730;53.552;9.940;2023-03-12T04:42:52;1.10;99.90
31074;DHT22;17730;53.552;9.940;2023-03-12T04:45:18;1.00;99.90
31074;DHT22;17730;53.552;9.940;2023-03-12T04:47:43;1.00;99.90
31074;DHT22;17730;53.552;9.940;2023-03-12T04:50:09;1.00;99.90
31074;DHT22;17730;53.552;9.940;2023-03-12T04:52:35;1.00;99.90
31074;DHT22;17730;53.552;9.940;2023-03-12T04:55:00;0.90;99.90
31074;DHT22;17730;53.552;9.940;2023-03-12T04:57:26;0.90;99.90
31074;DHT22;17730;53.552;9.940;2023-03-12T04:59:51;1.00;99.90
31074;DHT22;17730;53.552;9.940;2023-03-12T05:02:17;1.00;99.90
31074;DHT22;17730;53.552;9.940;2023-03-12T05:04:42;1.00;99.90
31074;DHT22;17730;53.552;9.940;2023-03-12T05:07:08;1.00;99.90
31074;DHT22;17730;53.552;9.940;2023-03-12T05:09:33;1.10;99.90
31074;DHT22;17730;53.552;9.940;2023-03-12T05:11:59;1.10;99.90
31074;DHT22;17730;53.552;9.940;2023-03-12T05:14:24;1.20;99.90
31074;DHT22;17730;53.552;9.940;2023-03-12T05:16:50;1.20;99.90
31074;DHT22;17730;53.552;9.940;2023-03-12T05:19:15;1.30;99.90
31074;DHT22;17730;53.552;9.940;2023-03-12T05:21:41;1.30;99.90
31074;DHT22;17730;53.552;9.940;2023-03-12T05:24:07;1.30;99.90
31074;DHT22;17730;53.552;9.940;2023-03-12T05:26:33;1.30;99.90
31074;DHT22;17730;53.552;9.940;2023-03-12T05:28:59;1.20;99.90
31074;DHT22;17730;53.552;9.940;2023-03-12T05:31:24;1.20;99.90
31074;DHT22;17730;53.552;9.940;2023-03-12T05:33:50;1.20;99.90
31074;DHT22;17730;53.552;9.940;2023-03-12T05:36:16;1.20;99.90
31074;DHT22;17730;53.552;9.940;2023-03-12T05:38:42;1.20;99.90
31074;DHT22;17730;53.552;9.940;2023-03-12T05:41:08;1.20;99.90
31074;DHT22;17730;53.552;9.940;2023-03-12T05:43:34;1.20;99.90
31074;DHT22;17730;53.552;9.940;2023-03-12T05:46:00;1.30;99.90
31074;DHT22;17730;53.552;9.940;2023-03-12T05:48:26;1.30;99.90
31074;DHT22;17730;53.552;9.940;2023-03-12T05:50:52;1.40;99.90
31074;DHT22;17730;53.552;9.940;2023-03-12T05:53:17;1.40;99.90
31074;DHT22;17730;53.552;9.940;2023-03-12T05:55:43;1.40;99.90
31074;DHT22;17730;53.552;9.940;2023-03-12T05:58:08;1.40;99.90
31074;DHT22;17730;53.552;9.940;2023-03-12T06:00:34;1.50;99.90
31074;DHT22;17730;53.552;9.940;2023-03-12T06:03:03;1.50;99.90
31074;DHT22;17730;53.552;9.940;2023-03-12T06:05:29;1.60;99.90
31074;DHT22;17730;53.552;9.940;2023-03-12T06:07:54;1.60;99.90
31074;DHT22;17730;53.552;9.940;2023-03-12T06:10:20;1.70;99.90
31074;DHT22;17730;53.552;9.940;2023-03-12T06:12:45;1.70;99.90
31074;DHT22;17730;53.552;9.940;2023-03-12T06:15:11;1.80;99.90
31074;DHT22;17730;53.552;9.940;2023-03-12T06:17:36;1.90;99.90
31074;DHT22;17730;53.552;9.940;2023-03-12T06:20:02;1.90;99.90
31074;DHT22;17730;53.552;9.940;2023-03-12T06:22:27;2.00;99.90
31074;DHT22;17730;53.552;9.940;2023-03-12T06:24:54;2.10;99.90
31074;DHT22;17730;53.552;9.940;2023-03-12T06:27:19;2.10;99.90
31074;DHT22;17730;53.552;9.940;2023-03-12T06:29:45;2.20;99.90
31074;DHT22;17730;53.552;9.940;2023-03-12T06:32:13;2.20;99.90
31074;DHT22;17730;53.552;9.940;2023-03-12T06:34:38;2.30;99.90
31074;DHT22;17730;53.552;9.940;2023-03-12T06:37:04;2.30;99.90
31074;DHT22;17730;53.552;9.940;2023-03-12T06:39:29;2.20;99.90
31074;DHT22;17730;53.552;9.940;2023-03-12T06:41:55;2.20;99.90
31074;DHT22;17730;53.552;9.940;2023-03-12T06:44:20;2.20;99.90
31074;DHT22;17730;53.552;9.940;2023-03-12T06:46:46;2.30;99.90
31074;DHT22;17730;53.552;9.940;2023-03-12T06:49:11;2.30;99.90
31074;DHT22;17730;53.552;9.940;2023-03-12T06:51:37;2.30;99.90
31074;DHT22;17730;53.552;9.940;2023-03-12T06:54:03;2.30;99.90
31074;DHT22;17730;53.552;9.940;2023-03-12T06:56:28;2.40;99.90
31074;DHT22;17730;53.552;9.940;2023-03-12T06:58:54;2.40;99.90
31074;DHT22;17730;53.552;9.940;2023-03-12T07:01:20;2.50;99.90
31074;DHT22;17730;53.552;9.940;2023-03-12T07:03:45;2.60;99.90
31074;DHT22;17730;53.552;9.940;2023-03-12T07:06:12;2.70;99.90
31074;DHT22;17730;53.552;9.940;2023-03-12T07:08:38;2.90;99.90
31074;DHT22;17730;53.552;9.940;2023-03-12T07:11:04;2.90;99.90
31074;DHT22;17730;53.552;9.940;2023-03-12T07:13:29;3.00;99.90
31074;DHT22;17730;53.552;9.940;2023-03-12T07:15:55;3.10;99.90
31074;DHT22;17730;53.552;9.940;2023-03-12T07:18:20;3.20;99.90
31074;DHT22;17730;53.552;9.940;2023-03-12T07:20:46;3.20;99.90
31074;DHT22;17730;53.552;9.940;2023-03-12T07:23:12;3.30;99.90
31074;DHT22;17730;53.552;9.940;2023-03-12T07:25:38;3.30;99.90
31074;DHT22;17730;53.552;9.940;2023-03-12T07:28:04;3.30;99.90
31074;DHT22;17730;53.552;9.940;2023-03-12T07:30:30;3.40;99.90
31074;DHT22;17730;53.552;9.940;2023-03-12T07:33:03;3.30;99.90
31074;DHT22;17730;53.552;9.940;2023-03-12T07:35:29;3.40;99.90
31074;DHT22;17730;53.552;9.940;2023-03-12T07:37:55;3.40;99.90
31074;DHT22;17730;53.552;9.940;2023-03-12T07:40:21;3.40;99.90
31074;DHT22;17730;53.552;9.940;2023-03-12T07:42:47;3.60;99.90
31074;DHT22;17730;53.552;9.940;2023-03-12T07:45:14;3.60;99.90
31074;DHT22;17730;53.552;9.940;2023-03-12T07:47:39;3.70;99.90
31074;DHT22;17730;53.552;9.940;2023-03-12T07:50:05;3.80;99.90
31074;DHT22;17730;53.552;9.940;2023-03-12T07:52:30;3.80;99.90
31074;DHT22;17730;53.552;9.940;2023-03-12T07:54:56;4.00;99.90
31074;DHT22;17730;53.552;9.940;2023-03-12T07:57:22;4.10;99.90
31074;DHT22;17730;53.552;9.940;2023-03-12T07:59:48;4.20;99.90
31074;DHT22;17730;53.552;9.940;2023-03-12T08:02:13;4.20;99.90
31074;DHT22;17730;53.552;9.940;2023-03-12T08:04:39;4.40;99.90
31074;DHT22;17730;53.552;9.940;2023-03-12T08:07:04;4.60;99.90
31074;DHT22;17730;53.552;9.940;2023-03-12T08:09:30;4.70;99.90
31074;DHT22;17730;53.552;9.940;2023-03-12T08:11:56;5.00;99.90
31074;DHT22;17730;53.552;9.940;2023-03-12T08:14:22;5.10;99.90
31074;DHT22;17730;53.552;9.940;2023-03-12T08:16:47;5.30;99.90
31074;DHT22;17730;53.552;9.940;2023-03-12T08:19:13;5.50;99.90
31074;DHT22;17730;53.552;9.940;2023-03-12T08:21:38;5.60;99.90
31074;DHT22;17730;53.552;9.940;2023-03-12T08:24:03;5.70;99.90
31074;DHT22;17730;53.552;9.940;2023-03-12T08:26:29;5.70;99.90
31074;DHT22;17730;53.552;9.940;2023-03-12T08:28:54;5.70;99.90
31074;DHT22;17730;53.552;9.940;2023-03-12T08:31:20;5.60;99.90
31074;DHT22;17730;53.552;9.940;2023-03-12T08:33:45;5.70;99.90
31074;DHT22;17730;53.552;9.940;2023-03-12T08:36:11;5.60;99.90
31074;DHT22;17730;53.552;9.940;2023-03-12T08:38:37;5.70;99.90
31074;DHT22;17730;53.552;9.940;2023-03-12T08:41:02;5.60;99.90
31074;DHT22;17730;53.552;9.940;2023-03-12T08:43:28;5.70;99.90
31074;DHT22;17730;53.552;9.940;2023-03-12T08:45:57;5.70;99.90
31074;DHT22;17730;53.552;9.940;2023-03-12T08:48:23;5.70;99.90
31074;DHT22;17730;53.552;9.940;2023-03-12T08:50:48;5.80;99.90
31074;DHT22;17730;53.552;9.940;2023-03-12T08:53:14;5.80;99.90
31074;DHT22;17730;53.552;9.940;2023-03-12T08:55:40;5.80;99.90
31074;DHT22;17730;53.552;9.940;2023-03-12T08:58:05;5.90;99.90
31074;DHT22;17730;53.552;9.940;2023-03-12T09:00:30;6.00;99.90
31074;DHT22;17730;53.552;9.940;2023-03-12T09:02:56;6.10;99.90
31074;DHT22;17730;53.552;9.940;2023-03-12T09:05:25;6.00;99.90
31074;DHT22;17730;53.552;9.940;2023-03-12T09:07:54;6.00;99.90
31074;DHT22;17730;53.552;9.940;2023-03-12T09:10:20;6.00;99.90
31074;DHT22;17730;53.552;9.940;2023-03-12T09:12:45;6.00;99.90
31074;DHT22;17730;53.552;9.940;2023-03-12T09:15:11;6.00;99.90
31074;DHT22;17730;53.552;9.940;2023-03-12T09:17:36;5.90;99.90
31074;DHT22;17730;53.552;9.940;2023-03-12T09:20:03;5.90;99.90
31074;DHT22;17730;53.552;9.940;2023-03-12T09:22:32;5.90;99.90
31074;DHT22;17730;53.552;9.940;2023-03-12T09:24:58;6.00;99.90
31074;DHT22;17730;53.552;9.940;2023-03-12T09:27:23;6.10;99.90
31074;DHT22;17730;53.552;9.940;2023-03-12T09:29:49;6.20;99.90
31074;DHT22;17730;53.552;9.940;2023-03-12T09:32:15;6.30;99.90
31074;DHT22;17730;53.552;9.940;2023-03-12T09:34:41;6.50;99.90
31074;DHT22;17730;53.552;9.940;2023-03-12T09:37:06;6.50;99.90
31074;DHT22;17730;53.552;9.940;2023-03-12T09:39:32;6.40;99.90
31074;DHT22;17730;53.552;9.940;2023-03-12T09:41:57;6.20;99.90
31074;DHT22;17730;53.552;9.940;2023-03-12T09:44:29;6.20;99.90
31074;DHT22;17730;53.552;9.940;2023-03-12T09:46:57;6.20;99.90
31074;DHT22;17730;53.552;9.940;2023-03-12T09:51:54;6.40;99.90
31074;DHT22;17730;53.552;9.940;2023-03-12T09:57:08;6.80;99.90
31074;DHT22;17730;53.552;9.940;2023-03-12T09:59:35;6.90;99.90
31074;DHT22;17730;53.552;9.940;2023-03-12T10:02:02;7.00;99.90
31074;DHT22;17730;53.552;9.940;2023-03-12T10:04:32;7.00;99.90
31074;DHT22;17730;53.552;9.940;2023-03-12T10:07:35;7.10;99.90
31074;DHT22;17730;53.552;9.940;2023-03-12T10:10:00;7.30;99.90
31074;DHT22;17730;53.552;9.940;2023-03-12T10:15:02;7.40;99.90
31074;DHT22;17730;53.552;9.940;2023-03-12T10:20:10;7.50;99.10
31074;DHT22;17730;53.552;9.940;2023-03-12T10:25:31;7.50;99.00
31074;DHT22;17730;53.552;9.940;2023-03-12T10:28:10;7.70;97.80
31074;DHT22;17730;53.552;9.940;2023-03-12T10:30:36;7.60;96.10
31074;DHT22;17730;53.552;9.940;2023-03-12T10:33:05;7.70;96.30
31074;DHT22;17730;53.552;9.940;2023-03-12T10:35:35;7.70;95.90
31074;DHT22;17730;53.552;9.940;2023-03-12T10:38:02;7.60;96.30
31074;DHT22;17730;53.552;9.940;2023-03-12T10:40:29;7.60;96.50
31074;DHT22;17730;53.552;9.940;2023-03-12T10:42:55;7.60;97.00
31074;DHT22;17730;53.552;9.940;2023-03-12T10:45:33;7.60;97.60
31074;DHT22;17730;53.552;9.940;2023-03-12T10:48:03;7.70;97.80
31074;DHT22;17730;53.552;9.940;2023-03-12T10:50:35;7.70;97.00
31074;DHT22;17730;53.552;9.940;2023-03-12T10:55:57;7.80;96.70
31074;DHT22;17730;53.552;9.940;2023-03-12T10:58:23;7.70;95.80
31074;DHT22;17730;53.552;9.940;2023-03-12T11:00:56;7.60;95.40
31074;DHT22;17730;53.552;9.940;2023-03-12T11:03:22;7.40;95.70
31074;DHT22;17730;53.552;9.940;2023-03-12T11:05:51;7.30;95.20
31074;DHT22;17730;53.552;9.940;2023-03-12T11:08:19;7.20;95.00
31074;DHT22;17730;53.552;9.940;2023-03-12T11:10:45;7.20;95.40
31074;DHT22;17730;53.552;9.940;2023-03-12T11:15:46;7.10;95.00
31074;DHT22;17730;53.552;9.940;2023-03-12T11:20:56;7.00;94.80
31074;DHT22;17730;53.552;9.940;2023-03-12T11:23:40;6.90;95.00
31074;DHT22;17730;53.552;9.940;2023-03-12T11:26:11;6.80;95.10
31074;DHT22;17730;53.552;9.940;2023-03-12T11:28:40;6.70;95.20
31074;DHT22;17730;53.552;9.940;2023-03-12T11:31:07;6.70;95.80
31074;DHT22;17730;53.552;9.940;2023-03-12T11:33:34;6.60;95.20
31074;DHT22;17730;53.552;9.940;2023-03-12T11:38:40;6.50;96.00
31074;DHT22;17730;53.552;9.940;2023-03-12T11:41:17;6.60;95.60
31074;DHT22;17730;53.552;9.940;2023-03-12T11:46:34;6.80;95.50
31074;DHT22;17730;53.552;9.940;2023-03-12T11:49:13;6.70;95.20
31074;DHT22;17730;53.552;9.940;2023-03-12T11:51:47;6.70;95.50
31074;DHT22;17730;53.552;9.940;2023-03-12T11:56:48;6.40;95.80
31074;DHT22;17730;53.552;9.940;2023-03-12T11:59:37;6.40;95.90
31074;DHT22;17730;53.552;9.940;2023-03-12T12:10:30;6.70;96.40
31074;DHT22;17730;53.552;9.940;2023-03-12T12:15:49;7.00;96.40
31074;DHT22;17730;53.552;9.940;2023-03-12T12:18:23;6.90;96.50
31074;DHT22;17730;53.552;9.940;2023-03-12T12:21:01;7.10;96.80
31074;DHT22;17730;53.552;9.940;2023-03-12T12:23:40;7.10;96.90
31074;DHT22;17730;53.552;9.940;2023-03-12T12:26:16;7.10;96.60
31074;DHT22;17730;53.552;9.940;2023-03-12T12:28:53;7.10;97.40
31074;DHT22;17730;53.552;9.940;2023-03-12T12:31:28;7.20;97.30
31074;DHT22;17730;53.552;9.940;2023-03-12T12:36:35;7.00;97.30
31074;DHT22;17730;53.552;9.940;2023-03-12T12:39:08;6.90;97.40
31074;DHT22;17730;53.552;9.940;2023-03-12T12:41:35;6.90;97.60
31074;DHT22;17730;53.552;9.940;2023-03-12T12:44:05;6.80;97.60
31074;DHT22;17730;53.552;9.940;2023-03-12T12:46:47;6.70;98.20
31074;DHT22;17730;53.552;9.940;2023-03-12T12:49:16;6.70;98.50
31074;DHT22;17730;53.552;9.940;2023-03-12T12:51:46;6.70;98.90
31074;DHT22;17730;53.552;9.940;2023-03-12T12:56:55;6.70;99.90
31074;DHT22;17730;53.552;9.940;2023-03-12T12:59:37;6.70;99.90
31074;DHT22;17730;53.552;9.940;2023-03-12T13:02:10;6.80;99.90
31074;DHT22;17730;53.552;9.940;2023-03-12T13:04:38;6.80;99.90
31074;DHT22;17730;53.552;9.940;2023-03-12T13:09:52;6.80;99.90
31074;DHT22;17730;53.552;9.940;2023-03-12T13:14:49;6.60;99.90
31074;DHT22;17730;53.552;9.940;2023-03-12T13:19:43;6.30;99.90
31074;DHT22;17730;53.552;9.940;2023-03-12T13:27:16;6.10;99.90
31074;DHT22;17730;53.552;9.940;2023-03-12T13:29:43;6.20;99.90
31074;DHT22;17730;53.552;9.940;2023-03-12T13:34:55;6.40;99.90
31074;DHT22;17730;53.552;9.940;2023-03-12T13:37:28;6.40;99.90
31074;DHT22;17730;53.552;9.940;2023-03-12T13:39:56;6.40;99.90
31074;DHT22;17730;53.552;9.940;2023-03-12T13:44:49;6.30;99.90
31074;DHT22;17730;53.552;9.940;2023-03-12T13:54:48;5.80;99.90
31074;DHT22;17730;53.552;9.940;2023-03-12T13:57:26;5.80;99.90
31074;DHT22;17730;53.552;9.940;2023-03-12T13:59:53;5.60;99.90
31074;DHT22;17730;53.552;9.940;2023-03-12T14:02:31;5.50;99.90
31074;DHT22;17730;53.552;9.940;2023-03-12T14:05:04;5.40;99.90
31074;DHT22;17730;53.552;9.940;2023-03-12T14:07:44;5.30;99.90
31074;DHT22;17730;53.552;9.940;2023-03-12T14:10:15;5.20;99.90
31074;DHT22;17730;53.552;9.940;2023-03-12T14:17:43;4.90;99.90
31074;DHT22;17730;53.552;9.940;2023-03-12T14:20:17;4.80;99.90
31074;DHT22;17730;53.552;9.940;2023-03-12T14:22:44;4.90;99.90
31074;DHT22;17730;53.552;9.940;2023-03-12T14:25:27;4.90;99.90
31074;DHT22;17730;53.552;9.940;2023-03-12T14:27:53;4.90;99.90
31074;DHT22;17730;53.552;9.940;2023-03-12T14:30:22;4.80;99.90
31074;DHT22;17730;53.552;9.940;2023-03-12T14:32:50;4.70;99.90
31074;DHT22;17730;53.552;9.940;2023-03-12T14:35:19;4.70;99.90
31074;DHT22;17730;53.552;9.940;2023-03-12T14:37:50;4.70;99.90
31074;DHT22;17730;53.552;9.940;2023-03-12T14:41:05;4.60;99.90
31074;DHT22;17730;53.552;9.940;2023-03-12T14:43:20;4.40;99.90
31074;DHT22;17730;53.552;9.940;2023-03-12T14:45:48;4.40;99.90
31074;DHT22;17730;53.552;9.940;2023-03-12T14:48:14;4.30;99.90
31074;DHT22;17730;53.552;9.940;2023-03-12T14:50:44;4.20;99.90
31074;DHT22;17730;53.552;9.940;2023-03-12T14:53:11;4.20;99.90
31074;DHT22;17730;53.552;9.940;2023-03-12T14:55:37;4.10;99.90
31074;DHT22;17730;53.552;9.940;2023-03-12T14:58:13;4.10;99.90
31074;DHT22;17730;53.552;9.940;2023-03-12T15:00:39;4.00;99.90
31074;DHT22;17730;53.552;9.940;2023-03-12T15:03:09;4.00;99.90
31074;DHT22;17730;53.552;9.940;2023-03-12T15:05:36;4.00;99.90
31074;DHT22;17730;53.552;9.940;2023-03-12T15:08:02;3.80;99.90
31074;DHT22;17730;53.552;9.940;2023-03-12T15:10:28;3.80;99.90
31074;DHT22;17730;53.552;9.940;2023-03-12T15:12:55;3.80;99.90
31074;DHT22;17730;53.552;9.940;2023-03-12T15:17:54;3.60;99.90
31074;DHT22;17730;53.552;9.940;2023-03-12T15:20:20;3.60;99.90
31074;DHT22;17730;53.552;9.940;2023-03-12T15:22:46;3.50;99.90
31074;DHT22;17730;53.552;9.940;2023-03-12T15:25:27;3.50;99.90
31074;DHT22;17730;53.552;9.940;2023-03-12T15:31:05;3.50;99.90
31074;DHT22;17730;53.552;9.940;2023-03-12T15:33:30;3.50;99.90
31074;DHT22;17730;53.552;9.940;2023-03-12T15:38:24;3.50;99.90
31074;DHT22;17730;53.552;9.940;2023-03-12T15:40:50;3.50;99.90
31074;DHT22;17730;53.552;9.940;2023-03-12T15:43:19;3.50;99.90
31074;DHT22;17730;53.552;9.940;2023-03-12T15:45:45;3.50;99.90
31074;DHT22;17730;53.552;9.940;2023-03-12T15:48:31;3.60;99.90
31074;DHT22;17730;53.552;9.940;2023-03-12T15:50:57;3.60;99.90
31074;DHT22;17730;53.552;9.940;2023-03-12T15:58:36;3.40;99.90
31074;DHT22;17730;53.552;9.940;2023-03-12T16:01:06;3.50;99.90
31074;DHT22;17730;53.552;9.940;2023-03-12T16:03:32;3.50;99.90
31074;DHT22;17730;53.552;9.940;2023-03-12T16:05:58;3.50;99.90
31074;DHT22;17730;53.552;9.940;2023-03-12T16:08:24;3.50;99.90
31074;DHT22;17730;53.552;9.940;2023-03-12T16:10:51;3.50;99.90
31074;DHT22;17730;53.552;9.940;2023-03-12T16:13:18;3.50;99.90
31074;DHT22;17730;53.552;9.940;2023-03-12T16:15:44;3.50;99.90
31074;DHT22;17730;53.552;9.940;2023-03-12T16:18:11;3.50;99.90
31074;DHT22;17730;53.552;9.940;2023-03-12T16:20:37;3.50;99.90
31074;DHT22;17730;53.552;9.940;2023-03-12T16:23:02;3.50;99.90
31074;DHT22;17730;53.552;9.940;2023-03-12T16:25:28;3.50;99.90
31074;DHT22;17730;53.552;9.940;2023-03-12T16:27:54;3.60;99.90
31074;DHT22;17730;53.552;9.940;2023-03-12T16:30:30;3.60;99.90
31074;DHT22;17730;53.552;9.940;2023-03-12T16:32:57;3.70;99.90
31074;DHT22;17730;53.552;9.940;2023-03-12T16:35:22;3.70;99.90
31074;DHT22;17730;53.552;9.940;2023-03-12T16:37:48;3.70;99.90
31074;DHT22;17730;53.552;9.940;2023-03-12T16:40:14;3.70;99.90
31074;DHT22;17730;53.552;9.940;2023-03-12T16:42:41;3.80;99.90
31074;DHT22;17730;53.552;9.940;2023-03-12T16:45:09;3.70;99.90
31074;DHT22;17730;53.552;9.940;2023-03-12T16:47:36;3.70;99.90
31074;DHT22;17730;53.552;9.940;2023-03-12T16:50:02;3.70;99.90
31074;DHT22;17730;53.552;9.940;2023-03-12T16:52:27;3.70;99.90
31074;DHT22;17730;53.552;9.940;2023-03-12T16:54:55;3.70;99.90
31074;DHT22;17730;53.552;9.940;2023-03-12T16:57:25;3.70;99.90
31074;DHT22;17730;53.552;9.940;2023-03-12T16:59:52;3.70;99.90
31074;DHT22;17730;53.552;9.940;2023-03-12T17:02:18;3.70;99.90
31074;DHT22;17730;53.552;9.940;2023-03-12T17:04:45;3.80;99.90
31074;DHT22;17730;53.552;9.940;2023-03-12T17:07:10;3.80;99.90
31074;DHT22;17730;53.552;9.940;2023-03-12T17:09:36;3.80;99.90
31074;DHT22;17730;53.552;9.940;2023-03-12T17:12:02;3.80;99.90
31074;DHT22;17730;53.552;9.940;2023-03-12T17:14:28;3.80;99.90
31074;DHT22;17730;53.552;9.940;2023-03-12T17:16:54;3.80;99.90
31074;DHT22;17730;53.552;9.940;2023-03-12T17:19:20;3.90;99.90
31074;DHT22;17730;53.552;9.940;2023-03-12T17:21:46;3.90;99.90